Time;durP1;ratioP1;P1;durP2;ratioP2;P2;SDS_P1;SDS_P2;PMS_P1;PMS_P2;Temp;Humidity;BMP_temperature;BMP_pressure;BME280_temperature;BME280_humidity;BME280_pressure;Samples;Min_cycle;Max_cycle;Signal;HPM_P1;HPM_P2
2021/12/22 00:03:17;;;;;;;28.85;16.05;;;;;;;-1.27;100.00;99349.72;10359187;28;20128;-60
2021/12/22 00:08:22;;;;;;;30.98;18.02;;;;;;;-1.26;100.00;99345.28;10355431;28;20038;-60
2021/12/22 00:13:25;;;;;;;29.80;17.17;;;;;;;-1.27;100.00;99349.72;10353458;28;20124;-59
2021/12/22 00:18:30;;;;;;;32.58;17.67;;;;;;;-1.25;100.00;99349.66;10353890;28;21700;-60
2021/12/22 00:23:33;;;;;;;31.17;17.17;;;;;;;-1.25;100.00;99358.47;10369318;28;20153;-58
2021/12/22 00:28:36;;;;;;;29.92;16.55;;;;;;;-1.23;100.00;99358.41;10356351;28;20056;-58
2021/12/22 00:33:48;;;;;;;25.50;15.52;;;;;;;-1.23;100.00;99362.84;10353817;28;20469;-57
2021/12/22 00:38:52;;;;;;;22.60;13.98;;;;;;;-1.26;100.00;99363.81;10342795;28;20046;-57
2021/12/22 00:43:55;;;;;;;20.33;10.93;;;;;;;-1.32;100.00;99364.91;10348573;28;20081;-54
2021/12/22 00:48:59;;;;;;;16.77;9.25;;;;;;;-1.31;100.00;99361.34;10351694;28;20049;-55
2021/12/22 00:54:03;;;;;;;17.10;9.15;;;;;;;-1.32;100.00;99362.28;10350307;28;20133;-56
2021/12/22 00:59:06;;;;;;;12.38;7.28;;;;;;;-1.37;100.00;99366.03;10340244;28;20189;-63
2021/12/22 01:04:11;;;;;;;22.05;8.70;;;;;;;-1.37;100.00;99361.63;10359854;28;20149;-62
2021/12/22 01:09:14;;;;;;;11.73;6.43;;;;;;;-1.42;100.00;99368.84;10358549;28;20038;-60
2021/12/22 01:14:18;;;;;;;12.13;7.72;;;;;;;-1.46;100.00;99351.38;10349474;28;20042;-61
2021/12/22 01:19:29;;;;;;;14.15;8.35;;;;;;;-1.43;100.00;99367.13;10354084;28;20045;-62
2021/12/22 01:24:34;;;;;;;17.00;9.35;;;;;;;-1.47;100.00;99360.28;10350173;28;20045;-61
2021/12/22 01:29:39;;;;;;;17.23;9.30;;;;;;;-1.45;100.00;99364.56;10357746;28;20112;-57
2021/12/22 01:34:44;;;;;;;17.50;9.88;;;;;;;-1.42;100.00;99375.03;10358630;28;20121;-62
2021/12/22 01:39:47;;;;;;;16.98;9.32;;;;;;;-1.46;100.00;99377.81;10354311;28;20121;-60
2021/12/22 01:45:12;;;;;;;15.10;9.52;;;;;;;-1.43;100.00;99385.63;10355618;28;20229;-62
2021/12/22 01:50:29;;;;;;;16.00;10.40;;;;;;;-1.43;100.00;99389.16;10356213;28;20125;-59
2021/12/22 01:55:38;;;;;;;15.60;9.77;;;;;;;-1.43;100.00;99375.94;10352466;28;20052;-59
2021/12/22 02:00:41;;;;;;;18.55;9.95;;;;;;;-1.41;100.00;99373.22;10357157;28;20085;-58
2021/12/22 02:05:46;;;;;;;14.65;8.77;;;;;;;-1.45;100.00;99376.91;10357000;28;20132;-61
2021/12/22 02:10:49;;;;;;;15.65;8.52;;;;;;;-1.54;100.00;99367.59;10355977;28;20034;-61
2021/12/22 02:15:52;;;;;;;14.25;8.07;;;;;;;-1.60;100.00;99366.03;10353540;28;20080;-58
2021/12/22 02:20:57;;;;;;;14.88;9.02;;;;;;;-1.59;100.00;99362.44;10354520;28;20490;-62
2021/12/22 02:26:07;;;;;;;13.38;8.57;;;;;;;-1.56;100.00;99362.34;10354320;28;20056;-62
2021/12/22 02:31:14;;;;;;;17.35;9.23;;;;;;;-1.59;100.00;99367.75;10351253;28;20057;-56
2021/12/22 02:36:26;;;;;;;15.00;8.38;;;;;;;-1.65;100.00;99361.88;10354113;28;20050;-60
2021/12/22 02:41:32;;;;;;;13.07;7.88;;;;;;;-1.72;100.00;99371.81;10353185;28;20037;-62
2021/12/22 02:46:37;;;;;;;12.98;8.57;;;;;;;-1.72;100.00;99367.38;10355849;28;20116;-62
2021/12/22 02:51:43;;;;;;;15.48;9.30;;;;;;;-1.73;100.00;99365.66;10356196;28;20042;-62
2021/12/22 02:57:07;;;;;;;13.50;8.10;;;;;;;-1.72;100.00;99372.66;10335116;28;20057;-62
2021/12/22 03:02:19;;;;;;;13.13;9.27;;;;;;;-1.72;100.00;99377.09;10347554;28;20082;-61
2021/12/22 03:07:27;;;;;;;18.10;9.68;;;;;;;-1.69;100.00;99376.94;10352942;28;20052;-62
2021/12/22 03:12:34;;;;;;;16.77;10.07;;;;;;;-1.69;100.00;99376.94;10335599;28;20049;-62
2021/12/22 03:17:38;;;;;;;11.80;8.93;;;;;;;-1.72;100.00;99372.66;10354656;28;20138;-62
2021/12/22 03:22:45;;;;;;;17.63;10.00;;;;;;;-1.70;100.00;99364.66;10353600;28;20042;-62
2021/12/22 03:27:50;;;;;;;15.30;8.98;;;;;;;-1.70;100.00;99364.66;10353471;28;20078;-57
2021/12/22 03:32:54;;;;;;;16.25;9.13;;;;;;;-1.79;100.00;99359.75;10348459;28;20046;-57
2021/12/22 03:37:59;;;;;;;14.57;8.85;;;;;;;-1.74;100.00;99365.72;10347812;28;20046;-61
2021/12/22 03:43:03;;;;;;;16.00;9.55;;;;;;;-1.74;100.00;99360.44;10354966;28;20045;-54
2021/12/22 03:48:06;;;;;;;16.00;9.60;;;;;;;-1.80;100.00;99371.22;10353247;28;20589;-55
2021/12/22 03:53:10;;;;;;;12.30;8.75;;;;;;;-1.76;100.00;99364.91;10337220;28;20057;-57
2021/12/22 03:58:14;;;;;;;13.30;8.75;;;;;;;-1.75;100.00;99366.63;10355383;28;20053;-58
2021/12/22 04:03:20;;;;;;;14.65;9.10;;;;;;;-1.78;100.00;99366.75;10356190;28;20038;-59
2021/12/22 04:08:24;;;;;;;13.75;8.35;;;;;;;-1.78;100.00;99358.81;10330525;28;20524;-57
2021/12/22 04:13:27;;;;;;;14.70;9.68;;;;;;;-1.82;100.00;99370.47;10357660;28;20040;-55
2021/12/22 04:18:30;;;;;;;15.60;9.45;;;;;;;-1.74;100.00;99373.66;10342913;28;20409;-54
2021/12/22 04:23:35;;;;;;;14.43;9.30;;;;;;;-1.80;100.00;99360.66;10362493;28;20478;-56
2021/12/22 04:28:38;;;;;;;11.98;8.38;;;;;;;-1.83;100.00;99360.81;10360032;28;20050;-56
2021/12/22 04:33:41;;;;;;;19.00;9.85;;;;;;;-1.90;100.00;99368.94;10360465;28;20409;-58
2021/12/22 04:38:45;;;;;;;15.45;11.10;;;;;;;-1.90;100.00;99358.38;10339820;28;20065;-58
2021/12/22 04:43:49;;;;;;;16.83;10.55;;;;;;;-1.93;100.00;99366.41;10338090;28;20050;-61
2021/12/22 04:48:52;;;;;;;15.35;11.77;;;;;;;-1.97;100.00;99363.97;10352389;28;20042;-61
2021/12/22 04:54:03;;;;;;;15.18;10.60;;;;;;;-1.98;100.00;99360.47;10362667;28;20042;-58
2021/12/22 04:59:30;;;;;;;19.02;12.07;;;;;;;-1.99;100.00;99356.09;10344916;28;20046;-58
2021/12/22 05:04:33;;;;;;;18.13;11.60;;;;;;;-1.98;100.00;99355.19;10340185;28;20392;-59
2021/12/22 05:09:37;;;;;;;18.60;11.30;;;;;;;-1.99;100.00;99350.81;10326891;28;20042;-59
2021/12/22 05:14:44;;;;;;;18.15;11.38;;;;;;;-2.05;100.00;99335.19;10333662;28;20106;-57
2021/12/22 05:19:48;;;;;;;16.48;11.00;;;;;;;-2.08;100.00;99328.25;10316710;28;20050;-61
2021/12/22 05:24:53;;;;;;;16.45;11.48;;;;;;;-2.03;100.00;99336.00;10336763;28;20054;-63
2021/12/22 05:29:56;;;;;;;17.92;11.43;;;;;;;-2.08;100.00;99335.34;10361624;28;20073;-59
2021/12/22 05:35:00;;;;;;;14.93;11.55;;;;;;;-2.12;100.00;99336.38;10359637;28;20042;-55
2021/12/22 05:40:07;;;;;;;16.73;11.77;;;;;;;-2.14;100.00;99339.06;10341110;28;20132;-57
2021/12/22 05:45:11;;;;;;;17.98;11.30;;;;;;;-2.21;100.00;99338.44;10325244;28;20052;-58
2021/12/22 05:50:14;;;;;;;18.88;12.80;;;;;;;-2.25;100.00;99336.81;10330666;28;20041;-60
2021/12/22 05:55:18;;;;;;;20.60;12.95;;;;;;;-2.34;100.00;99326.63;10328889;28;20053;-58
2021/12/22 06:00:22;;;;;;;18.30;13.63;;;;;;;-2.35;100.00;99324.91;10345603;28;20499;-58
2021/12/22 06:05:26;;;;;;;21.85;14.07;;;;;;;-2.35;100.00;99331.03;10365464;23;20056;-55
2021/12/22 06:10:30;;;;;;;22.80;14.05;;;;;;;-2.38;100.00;99330.28;10331896;28;20061;-55
2021/12/22 06:15:34;;;;;;;21.60;16.08;;;;;;;-2.39;100.00;99345.28;10352946;28;20060;-59
2021/12/22 06:20:38;;;;;;;24.33;15.13;;;;;;;-2.48;100.00;99340.34;10349267;28;20048;-54
2021/12/22 06:25:43;;;;;;;23.63;16.10;;;;;;;-2.47;100.00;99344.69;10353598;28;20050;-55
2021/12/22 06:30:46;;;;;;;26.85;16.50;;;;;;;-2.50;100.00;99353.56;10349828;28;20145;-56
2021/12/22 06:35:50;;;;;;;24.15;16.45;;;;;;;-2.53;100.00;99358.09;10327572;28;20876;-56
2021/12/22 06:40:54;;;;;;;21.88;15.90;;;;;;;-2.58;100.00;99366.19;10361031;28;20056;-57
2021/12/22 06:45:58;;;;;;;24.40;16.65;;;;;;;-2.63;100.00;99370.75;10353123;28;20445;-55
2021/12/22 06:51:01;;;;;;;23.00;15.70;;;;;;;-2.74;100.00;99380.81;10365911;28;20042;-57
2021/12/22 06:56:06;;;;;;;25.23;18.63;;;;;;;-2.76;100.00;99377.41;10372887;28;20398;-55
2021/12/22 07:01:12;;;;;;;25.90;18.02;;;;;;;-2.79;100.00;99373.06;10355595;28;20065;-57
2021/12/22 07:06:17;;;;;;;26.42;17.30;;;;;;;-2.82;100.00;99370.53;10327061;28;20053;-58
2021/12/22 07:11:21;;;;;;;28.15;18.08;;;;;;;-2.85;100.00;99366.25;10354236;28;20096;-58
2021/12/22 07:16:25;;;;;;;28.02;18.08;;;;;;;-2.83;100.00;99364.41;10335572;28;20104;-59
2021/12/22 07:21:28;;;;;;;28.25;18.67;;;;;;;-2.89;100.00;99369.91;10353089;28;20124;-54
2021/12/22 07:26:34;;;;;;;30.98;19.52;;;;;;;-3.00;100.00;99374.69;10354538;28;20099;-56
2021/12/22 07:31:37;;;;;;;30.73;19.90;;;;;;;-3.04;100.00;99380.97;10353697;28;20042;-59
2021/12/22 07:36:50;;;;;;;31.08;19.95;;;;;;;-3.17;100.00;99378.75;10353186;28;20552;-59
2021/12/22 07:41:55;;;;;;;30.85;19.63;;;;;;;-3.22;100.00;99390.34;10351752;28;20064;-55
2021/12/22 07:46:59;;;;;;;34.80;21.15;;;;;;;-3.33;100.00;99385.44;10336074;28;20823;-55
2021/12/22 07:52:02;;;;;;;33.95;20.73;;;;;;;-3.35;100.00;99395.19;10359926;28;20049;-57
2021/12/22 07:57:06;;;;;;;31.05;21.08;;;;;;;-3.39;100.00;99399.66;10361466;28;20158;-52
2021/12/22 08:02:10;;;;;;;37.28;22.85;;;;;;;-3.48;100.00;99395.56;10359962;28;20121;-55
2021/12/22 08:07:17;;;;;;;35.22;22.25;;;;;;;-3.49;100.00;99399.13;10359154;28;20058;-57
2021/12/22 08:13:10;;;;;;;33.40;21.23;;;;;;;-3.52;100.00;99399.19;10341824;28;20050;-53
2021/12/22 08:18:15;;;;;;;38.97;21.52;;;;;;;-3.51;100.00;99410.59;10358231;28;20425;-54
2021/12/22 08:23:19;;;;;;;43.03;22.25;;;;;;;-3.57;100.00;99395.84;10359540;28;20120;-52
2021/12/22 08:28:22;;;;;;;38.47;22.65;;;;;;;-3.55;100.00;99399.28;10356536;28;20202;-58
2021/12/22 08:33:31;;;;;;;37.47;22.90;;;;;;;-3.57;100.00;99395.84;10357591;28;20041;-58
2021/12/22 08:38:53;;;;;;;43.55;23.25;;;;;;;-3.54;100.00;99385.22;10353844;28;20044;-59
2021/12/22 08:43:59;;;;;;;42.05;23.60;;;;;;;-3.49;100.00;99377.16;10355474;28;20041;-62
2021/12/22 08:49:05;;;;;;;42.35;22.85;;;;;;;-3.52;100.00;99372.84;10354698;28;20050;-59
2021/12/22 08:54:10;;;;;;;41.83;22.63;;;;;;;-3.51;100.00;99369.31;10356354;28;20045;-59
2021/12/22 08:59:15;;;;;;;40.17;23.35;;;;;;;-3.45;100.00;99368.25;10359296;28;20537;-57
2021/12/22 09:04:20;;;;;;;38.72;22.38;;;;;;;-3.39;100.00;99372.47;10360196;28;20086;-60
2021/12/22 09:09:24;;;;;;;38.58;21.98;;;;;;;-3.33;100.00;99367.84;10358225;28;20521;-59
2021/12/22 09:14:27;;;;;;;39.13;22.38;;;;;;;-3.29;100.00;99365.97;10341390;28;20053;-59
2021/12/22 09:19:32;;;;;;;35.45;21.33;;;;;;;-3.23;100.00;99368.38;10346360;28;20399;-59
2021/12/22 09:24:35;;;;;;;35.42;19.52;;;;;;;-3.20;100.00;99363.03;10355436;28;20045;-65
2021/12/22 09:29:39;;;;;;;36.03;20.30;;;;;;;-3.13;100.00;99361.94;10337514;28;20418;-60
2021/12/22 09:34:49;;;;;;;34.83;18.60;;;;;;;-3.04;100.00;99367.78;10358692;28;20050;-58
2021/12/22 09:39:52;;;;;;;34.50;20.25;;;;;;;-2.95;100.00;99351.66;10356841;28;20037;-56
2021/12/22 09:44:58;;;;;;;34.17;20.73;;;;;;;-2.85;100.00;99360.97;10355068;28;20081;-59
2021/12/22 09:50:12;;;;;;;34.42;19.48;;;;;;;-2.72;100.00;99356.13;10356283;28;20045;-55
2021/12/22 09:55:15;;;;;;;33.90;18.52;;;;;;;-2.65;100.00;99348.88;10354702;28;20050;-64
2021/12/22 10:00:19;;;;;;;27.40;17.80;;;;;;;-2.55;100.00;99350.25;10347895;28;20045;-59
2021/12/22 10:05:23;;;;;;;27.08;17.17;;;;;;;-2.46;100.00;99342.91;10356017;28;20042;-59
2021/12/22 10:10:29;;;;;;;26.42;16.40;;;;;;;-2.40;100.00;99330.34;10337470;28;20078;-60
2021/12/22 10:15:34;;;;;;;27.20;15.43;;;;;;;-2.31;100.00;99323.88;10352456;28;20476;-58
2021/12/22 10:20:40;;;;;;;26.95;16.25;;;;;;;-2.24;100.00;99322.72;10356529;28;20121;-60
2021/12/22 10:25:43;;;;;;;28.23;15.75;;;;;;;-2.18;100.00;99311.94;10356726;28;20433;-60
2021/12/22 10:30:48;;;;;;;27.35;16.38;;;;;;;-2.07;100.00;99313.31;10349262;28;20046;-62
2021/12/22 10:35:56;;;;;;;26.10;16.38;;;;;;;-1.98;100.00;99307.66;10352960;28;20136;-60
2021/12/22 10:41:03;;;;;;;24.55;14.50;;;;;;;-1.86;100.00;99306.28;10337244;28;20034;-60
2021/12/22 10:46:07;;;;;;;23.90;13.75;;;;;;;-1.80;100.00;99298.16;10352931;28;20140;-62
2021/12/22 10:51:19;;;;;;;20.92;12.75;;;;;;;-1.65;100.00;99295.81;10354393;28;20049;-57
2021/12/22 10:56:30;;;;;;;21.10;13.60;;;;;;;-1.56;100.00;99288.34;10340531;28;20077;-59
2021/12/22 11:01:37;;;;;;;24.83;14.65;;;;;;;-1.39;100.00;99284.16;10353355;28;20042;-57
2021/12/22 11:06:43;;;;;;;21.58;13.40;;;;;;;-1.32;100.00;99280.31;10351159;28;20427;-60
2021/12/22 11:11:51;;;;;;;19.27;11.65;;;;;;;-1.23;100.00;99275.59;10334612;28;20145;-62
2021/12/22 11:17:00;;;;;;;24.00;13.10;;;;;;;-1.16;100.00;99262.00;10351222;28;20124;-63
2021/12/22 11:22:12;;;;;;;19.25;11.52;;;;;;;-1.09;100.00;99260.84;10344416;28;20053;-59
2021/12/22 11:27:19;;;;;;;21.85;11.57;;;;;;;-1.02;100.00;99248.19;10363521;28;20038;-53
2021/12/22 11:32:25;;;;;;;17.23;10.70;;;;;;;-0.93;100.00;99247.78;10363558;28;20205;-55
2021/12/22 11:37:31;;;;;;;18.50;10.57;;;;;;;-0.86;100.00;99247.50;10355264;28;20096;-60
2021/12/22 11:42:37;;;;;;;17.40;10.68;;;;;;;-0.75;100.00;99245.22;10362151;28;20096;-61
2021/12/22 11:47:43;;;;;;;17.33;10.93;;;;;;;-0.65;100.00;99243.88;10362472;28;20046;-56
2021/12/22 11:52:58;;;;;;;18.67;10.35;;;;;;;-0.55;100.00;99239.03;10362929;28;20092;-59
2021/12/22 11:58:14;;;;;;;16.20;10.23;;;;;;;-0.45;100.00;99225.34;10358570;28;20046;-60
2021/12/22 12:03:31;;;;;;;16.13;9.43;;;;;;;-0.38;100.00;99227.66;10371806;23;20045;-88
2021/12/22 12:08:39;;;;;;;14.23;9.60;;;;;;;-0.28;100.00;99221.91;10421570;28;20132;-81
2021/12/22 12:13:50;;;;;;;18.10;10.30;;;;;;;-0.18;100.00;99225.88;10413248;28;20047;-80
2021/12/22 12:24:49;;;;;;;21.92;11.10;;;;;;;-0.07;100.00;99212.97;10400608;28;20335;-88
2021/12/22 12:29:59;;;;;;;16.38;9.90;;;;;;;0.02;100.00;99203.69;10403119;28;20049;-82
2021/12/22 12:35:22;;;;;;;15.90;9.65;;;;;;;0.11;100.00;99189.13;10404370;28;20037;-81
2021/12/22 12:41:11;;;;;;;15.18;9.88;;;;;;;0.28;100.00;99194.47;10397108;28;20042;-81
2021/12/22 12:46:47;;;;;;;18.23;9.25;;;;;;;0.35;100.00;99183.53;10397219;28;20049;-80
2021/12/22 12:51:58;;;;;;;13.00;8.75;;;;;;;0.48;100.00;99176.69;10295569;28;20060;-81
2021/12/22 12:57:40;;;;;;;13.75;8.82;;;;;;;0.69;100.00;99184.47;10403443;28;20050;-81
2021/12/22 13:02:44;;;;;;;14.07;8.40;;;;;;;0.84;100.00;99172.19;10405208;28;20049;-80
2021/12/22 13:07:49;;;;;;;12.27;8.13;;;;;;;1.03;100.00;99166.75;10425440;28;20060;-87
2021/12/22 13:18:22;;;;;;;11.40;8.03;;;;;;;1.30;100.00;99163.56;10400975;28;20048;-81
2021/12/22 13:23:31;;;;;;;13.43;8.30;;;;;;;1.32;100.00;99169.63;10391823;28;20573;-85
2021/12/22 13:28:37;;;;;;;10.50;7.53;;;;;;;1.38;100.00;99169.28;10390090;28;20111;-82
2021/12/22 13:34:01;;;;;;;13.05;8.30;;;;;;;1.30;100.00;99167.03;10394274;28;20041;-79
2021/12/22 13:39:08;;;;;;;13.43;7.95;;;;;;;1.23;100.00;99169.19;10394707;28;20045;-81
2021/12/22 16:13:18;;;;;;;20.15;11.93;;;;;;;-1.45;100.00;99089.69;10437986;28;20033;-82
2021/12/22 16:18:24;;;;;;;19.80;11.57;;;;;;;-1.46;100.00;99092.38;10405072;28;20069;-83
2021/12/22 16:23:29;;;;;;;17.75;11.35;;;;;;;-1.50;100.00;99096.09;10408538;28;20057;-84
2021/12/22 16:28:42;;;;;;;17.92;11.60;;;;;;;-1.57;100.00;99101.66;10405795;28;20509;-81
2021/12/22 16:33:44;;;;;;;18.50;10.23;;;;;;;-1.61;100.00;99109.78;10405851;28;20417;-82
2021/12/22 16:38:49;;;;;;;15.38;10.23;;;;;;;-1.65;100.00;99103.78;10401945;28;20935;-84
2021/12/22 16:43:53;;;;;;;16.40;10.55;;;;;;;-1.67;100.00;99104.78;10406099;28;20041;-85
2021/12/22 16:48:57;;;;;;;15.18;9.88;;;;;;;-1.72;100.00;99097.91;10439939;23;20107;-58
2021/12/22 16:54:00;;;;;;;16.08;9.52;;;;;;;-1.74;100.00;99096.25;10383430;28;20038;-59
2021/12/22 16:59:07;;;;;;;15.20;9.65;;;;;;;-1.76;100.00;99092.81;10384699;28;20569;-57
2021/12/22 17:04:11;;;;;;;18.90;10.15;;;;;;;-1.79;100.00;99085.91;10391099;28;20053;-61
2021/12/22 17:09:14;;;;;;;15.50;9.50;;;;;;;-1.82;100.00;99075.47;10385802;28;20112;-57
2021/12/22 17:14:19;;;;;;;15.27;9.32;;;;;;;-1.84;100.00;99073.81;10399417;28;20053;-59
2021/12/22 17:19:22;;;;;;;14.07;8.63;;;;;;;-1.88;100.00;99070.44;10392416;28;20125;-57
2021/12/22 17:24:26;;;;;;;12.82;8.20;;;;;;;-1.91;100.00;99060.00;10384152;28;20125;-53
2021/12/22 17:29:32;;;;;;;13.65;8.00;;;;;;;-1.92;100.00;99068.84;10383886;28;20405;-59
2021/12/22 17:34:36;;;;;;;13.68;8.07;;;;;;;-1.93;100.00;99073.28;10389481;28;20048;-56
2021/12/22 17:39:41;;;;;;;13.13;8.70;;;;;;;-1.95;100.00;99075.13;10397165;28;20064;-54
2021/12/22 17:44:45;;;;;;;14.60;9.50;;;;;;;-1.96;100.00;99065.50;10384295;28;20072;-56
2021/12/22 17:49:49;;;;;;;13.68;9.15;;;;;;;-1.96;100.00;99062.88;10416541;28;20225;-60
2021/12/22 17:54:52;;;;;;;12.98;8.90;;;;;;;-1.93;100.00;99064.50;10431881;28;20045;-61
2021/12/22 17:59:56;;;;;;;15.30;8.32;;;;;;;-1.92;100.00;99058.28;10405679;28;20128;-60
2021/12/22 18:05:14;;;;;;;13.38;8.82;;;;;;;-1.94;100.00;99045.13;10394379;28;20084;-61
2021/12/22 18:10:23;;;;;;;14.60;9.40;;;;;;;-1.94;100.00;99044.28;10392917;28;20053;-60
2021/12/22 18:15:28;;;;;;;15.77;10.60;;;;;;;-1.97;100.00;99039.13;10381709;28;20042;-61
2021/12/22 18:20:31;;;;;;;16.63;10.20;;;;;;;-2.02;100.00;99032.31;10378532;28;20123;-60
2021/12/22 18:25:35;;;;;;;16.45;9.18;;;;;;;-2.08;100.00;99035.19;10375555;28;20072;-61
2021/12/22 18:30:41;;;;;;;12.27;8.75;;;;;;;-2.11;100.00;99026.53;10382008;28;20049;-59
2021/12/22 18:35:46;;;;;;;12.57;8.93;;;;;;;-2.17;100.00;99025.88;10382038;28;20061;-61
2021/12/22 18:40:54;;;;;;;14.70;8.68;;;;;;;-2.21;100.00;99024.31;10394059;28;20040;-57
2021/12/22 18:46:02;;;;;;;12.50;7.63;;;;;;;-2.24;100.00;99023.59;10375508;28;20051;-57
2021/12/22 18:51:05;;;;;;;11.13;7.38;;;;;;;-2.27;100.00;99014.00;10394791;28;20356;-58
2021/12/22 18:56:09;;;;;;;11.32;8.00;;;;;;;-2.32;100.00;99008.06;10392841;28;20046;-58
2021/12/22 19:01:15;;;;;;;12.98;7.75;;;;;;;-2.33;100.00;99006.34;10388172;28;20038;-60
2021/12/22 19:06:18;;;;;;;13.10;8.32;;;;;;;-2.36;100.00;99001.19;10391261;28;20037;-58
2021/12/22 19:11:22;;;;;;;13.10;7.82;;;;;;;-2.39;100.00;98986.38;10388067;28;20133;-59
2021/12/22 19:16:26;;;;;;;10.38;7.20;;;;;;;-2.39;100.00;98978.44;10397397;28;20033;-62
2021/12/22 19:21:31;;;;;;;11.57;7.65;;;;;;;-2.43;100.00;98979.50;10396285;28;20087;-61
2021/12/22 19:26:34;;;;;;;17.23;7.82;;;;;;;-2.45;100.00;98973.41;10394649;28;20045;-58
2021/12/22 19:31:38;;;;;;;15.73;8.48;;;;;;;-2.47;100.00;98967.38;10394911;28;20049;-64
2021/12/22 19:36:42;;;;;;;18.00;9.02;;;;;;;-2.45;100.00;98957.59;10394570;28;20042;-61
2021/12/22 19:41:45;;;;;;;15.27;9.80;;;;;;;-2.48;100.00;98955.94;10395227;28;20515;-62
2021/12/22 19:47:26;;;;;;;12.70;7.13;;;;;;;-2.48;100.00;98953.31;10394065;28;20053;-63
2021/12/22 19:52:31;;;;;;;11.50;7.22;;;;;;;-2.46;100.00;98960.31;10405298;28;20061;-61
2021/12/22 19:57:35;;;;;;;14.23;7.78;;;;;;;-2.48;100.00;98960.38;10405000;28;20466;-64
2021/12/22 20:02:39;;;;;;;13.77;7.88;;;;;;;-2.51;100.00;98950.78;10405126;28;20088;-62
2021/12/22 20:07:44;;;;;;;11.27;7.25;;;;;;;-2.54;100.00;98939.53;10399389;28;20041;-63
2021/12/22 20:12:49;;;;;;;13.18;7.28;;;;;;;-2.57;100.00;98929.97;10396362;28;20132;-62
2021/12/22 20:17:53;;;;;;;13.77;7.40;;;;;;;-2.64;100.00;98926.72;10401882;28;20048;-65
2021/12/22 20:22:59;;;;;;;12.20;7.57;;;;;;;-2.64;100.00;98926.72;10398529;28;20445;-64
2021/12/22 20:28:03;;;;;;;14.55;8.20;;;;;;;-2.69;100.00;98922.56;10400635;28;20044;-65
2021/12/22 20:33:08;;;;;;;12.40;7.70;;;;;;;-2.70;100.00;98916.44;10401819;28;20048;-64
2021/12/22 20:38:13;;;;;;;12.15;7.45;;;;;;;-2.70;100.00;98913.78;10398912;28;20160;-64
2021/12/22 20:43:18;;;;;;;13.00;7.60;;;;;;;-2.68;100.00;98906.69;10402362;28;20128;-62
2021/12/22 20:48:24;;;;;;;12.07;7.78;;;;;;;-2.69;100.00;98889.13;10403873;28;20386;-61
2021/12/22 20:53:33;;;;;;;12.82;7.82;;;;;;;-2.66;100.00;98885.53;10398948;28;20128;-61
2021/12/22 20:58:37;;;;;;;11.60;7.82;;;;;;;-2.65;100.00;98888.09;10393284;28;20054;-62
2021/12/22 21:03:43;;;;;;;14.55;7.75;;;;;;;-2.65;100.00;98882.81;10403060;28;20041;-61
2021/12/22 21:08:47;;;;;;;11.95;7.93;;;;;;;-2.66;100.00;98874.97;10394598;28;20144;-61
2021/12/22 21:13:51;;;;;;;12.93;8.57;;;;;;;-2.68;100.00;98851.28;10396201;28;20512;-63
2021/12/22 21:18:55;;;;;;;13.30;7.45;;;;;;;-2.70;100.00;98852.28;10392146;28;20038;-63
2021/12/22 21:24:00;;;;;;;12.98;8.25;;;;;;;-2.71;100.00;98855.84;10389750;28;20044;-62
2021/12/22 21:29:04;;;;;;;11.93;8.27;;;;;;;-2.73;100.00;98861.19;10361187;28;20111;-61
2021/12/22 21:34:10;;;;;;;12.13;8.32;;;;;;;-2.71;100.00;98842.66;10387365;28;20041;-61
2021/12/22 21:39:16;;;;;;;12.68;8.20;;;;;;;-2.69;100.00;98833.75;10399050;28;20650;-58
2021/12/22 21:44:19;;;;;;;12.90;8.02;;;;;;;-2.71;100.00;98837.38;10401850;28;20065;-61
2021/12/22 21:49:26;;;;;;;13.00;7.32;;;;;;;-2.71;100.00;98832.09;10395238;28;20137;-63
2021/12/22 21:54:31;;;;;;;15.07;8.50;;;;;;;-2.70;100.00;98823.28;10398992;28;20041;-54
2021/12/22 21:59:35;;;;;;;13.38;8.15;;;;;;;-2.69;100.00;98825.84;10395333;28;20053;-56
2021/12/22 22:04:39;;;;;;;12.00;8.27;;;;;;;-2.67;100.00;98807.31;10356889;28;20058;-59
2021/12/22 22:09:43;;;;;;;12.65;8.40;;;;;;;-2.70;100.00;98796.91;10393398;28;20099;-63
2021/12/22 22:14:46;;;;;;;10.27;7.85;;;;;;;-2.71;100.00;98796.06;10399975;28;20128;-59
2021/12/22 22:19:50;;;;;;;12.65;8.05;;;;;;;-2.67;100.00;98791.50;10382873;28;20049;-60
2021/12/22 22:24:55;;;;;;;13.85;7.55;;;;;;;-2.69;100.00;98777.50;10397302;28;20121;-62
2021/12/22 22:29:58;;;;;;;11.75;7.40;;;;;;;-2.70;100.00;98771.38;10396177;28;20053;-61
2021/12/22 22:35:01;;;;;;;10.27;7.43;;;;;;;-2.60;100.00;98768.34;10397963;28;20041;-62
2021/12/22 22:40:07;;;;;;;11.70;7.55;;;;;;;-2.58;100.00;98763.81;10390912;28;20083;-61
2021/12/22 22:45:11;;;;;;;11.93;7.75;;;;;;;-2.62;100.00;98757.84;10397377;28;20053;-58
2021/12/22 22:50:15;;;;;;;12.02;7.47;;;;;;;-2.63;100.00;98756.13;10377210;28;20509;-60
2021/12/22 22:55:22;;;;;;;12.82;7.55;;;;;;;-2.63;100.00;98735.03;10389914;28;20041;-62
2021/12/22 23:00:28;;;;;;;10.88;7.35;;;;;;;-2.60;100.00;98740.16;10396490;28;20045;-57
2021/12/22 23:05:33;;;;;;;10.63;7.30;;;;;;;-2.61;100.00;98743.72;10396300;28;20502;-59
2021/12/22 23:10:37;;;;;;;14.80;8.15;;;;;;;-2.63;100.00;98724.47;10372402;28;20041;-56
2021/12/22 23:15:43;;;;;;;11.57;7.88;;;;;;;-2.62;100.00;98731.47;10394095;28;20064;-58
2021/12/22 23:20:47;;;;;;;12.70;7.93;;;;;;;-2.60;100.00;98724.34;10394533;28;20064;-60
2021/12/22 23:25:52;;;;;;;14.68;8.43;;;;;;;-2.58;100.00;98722.50;10406910;28;20513;-60
2021/12/22 23:30:56;;;;;;;11.63;7.78;;;;;;;-2.59;100.00;98717.31;10408596;28;20064;-56
2021/12/22 23:36:06;;;;;;;12.50;8.07;;;;;;;-2.59;100.00;98719.94;10410932;28;20069;-59
2021/12/22 23:41:31;;;;;;;12.70;8.40;;;;;;;-2.58;100.00;98700.50;10406034;28;20040;-58
2021/12/22 23:51:55;;;;;;;12.18;8.40;;;;;;;-2.63;100.00;98704.25;10395382;28;20068;-59
2021/12/22 23:57:00;;;;;;;13.88;9.35;;;;;;;-2.67;100.00;98707.94;10396951;28;20041;-63
